Time;durP1;ratioP1;P1;durP2;ratioP2;P2;SDS_P1;SDS_P2;PMS_P1;PMS_P2;Temp;Humidity;BMP_temperature;BMP_pressure;BME280_temperature;BME280_humidity;BME280_pressure;Samples;Min_cycle;Max_cycle;Signal;HPM_P1;HPM_P2
2021/01/29 00:00:38;;;;;;;3.97;2.57;;;;;;;-0.80;90.10;98744.02;1743246;80;21862;-39
2021/01/29 00:03:13;;;;;;;4.27;2.67;;;;;;;-0.79;89.70;98741.32;1737861;82;21146;-39
2021/01/29 00:05:48;;;;;;;4.87;3.05;;;;;;;-0.73;90.38;98752.88;1743957;82;21283;-39
2021/01/29 00:08:15;;;;;;;4.20;2.23;;;;;;;-0.89;92.96;98751.30;1736350;82;21134;-41
2021/01/29 00:10:43;;;;;;;4.37;2.65;;;;;;;-0.94;92.00;98751.09;1738863;82;21149;-40
2021/01/29 00:13:12;;;;;;;4.37;2.70;;;;;;;-0.93;91.96;98751.05;1674118;84;21185;-40
2021/01/29 00:15:42;;;;;;;;;;;;;;;-0.90;92.07;98747.45;1738134;82;21889;-39
2021/01/29 00:18:10;;;;;;;3.67;2.35;;;;;;;-0.84;92.01;98746.35;1738690;82;20390;-43
2021/01/29 00:20:37;;;;;;;3.42;2.22;;;;;;;-0.79;91.70;98744.41;1744157;80;21645;-40
2021/01/29 00:23:05;;;;;;;2.72;2.20;;;;;;;-0.74;91.36;98743.30;1732713;80;21133;-40
2021/01/29 00:25:38;;;;;;;3.50;2.37;;;;;;;-0.71;90.69;98738.40;1727686;81;21158;-42
2021/01/29 00:28:06;;;;;;;3.10;2.17;;;;;;;-0.72;91.17;98737.55;1722371;81;21146;-40
2021/01/29 00:30:34;;;;;;;3.47;2.03;;;;;;;-0.72;90.79;98734.09;1719856;81;21657;-40
2021/01/29 00:33:04;;;;;;;4.93;2.20;;;;;;;-0.72;90.82;98732.78;1721647;82;21137;-45
2021/01/29 00:35:33;;;;;;;3.60;2.07;;;;;;;-0.78;91.23;98731.27;1724859;81;21147;-42
2021/01/29 00:38:00;;;;;;;3.10;2.43;;;;;;;-0.82;91.65;98720.51;1720075;81;21142;-40
2021/01/29 00:40:28;;;;;;;3.20;1.77;;;;;;;-0.84;92.47;98721.48;1722808;81;21141;-40
2021/01/29 00:42:57;;;;;;;3.23;2.13;;;;;;;-0.85;92.42;98720.64;1725735;81;21102;-44
2021/01/29 00:45:28;;;;;;;3.47;2.10;;;;;;;-0.87;91.89;98718.53;1718335;81;21111;-38
2021/01/29 00:47:56;;;;;;;2.95;1.98;;;;;;;-0.88;92.09;98718.15;1719616;81;21443;-40
2021/01/29 00:50:24;;;;;;;5.05;2.22;;;;;;;-0.88;91.46;98718.15;1729053;81;21142;-41
2021/01/29 00:52:52;;;;;;;2.43;1.93;;;;;;;-0.88;91.58;98720.77;1719166;81;21641;-39
2021/01/29 00:55:21;;;;;;;3.50;2.50;;;;;;;-0.88;91.75;98713.77;1717510;81;21546;-39
2021/01/29 00:58:00;;;;;;;3.80;2.10;;;;;;;-0.84;91.49;98708.39;1763949;79;23105;-40
2021/01/29 01:00:39;;;;;;;4.17;2.17;;;;;;;-0.90;91.56;98712.12;1731059;80;21195;-40
2021/01/29 01:03:09;;;;;;;3.60;2.47;;;;;;;-0.89;90.99;98712.50;1724060;82;21618;-40
2021/01/29 01:05:38;;;;;;;2.73;1.70;;;;;;;-0.92;90.58;98711.32;1716256;82;21109;-40
2021/01/29 01:08:06;;;;;;;2.73;1.83;;;;;;;-0.93;90.85;98714.86;1712555;83;21551;-39
2021/01/29 01:10:52;;;;;;;5.73;2.80;;;;;;;-0.94;90.90;98706.59;1716917;82;21692;-38
2021/01/29 01:13:50;;;;;;;3.70;2.03;;;;;;;-0.92;90.64;98708.23;1795005;78;23049;-36
2021/01/29 01:16:22;;;;;;;3.27;2.00;;;;;;;-0.97;90.84;98703.64;1708566;82;22088;-43
2021/01/29 01:18:51;;;;;;;4.03;2.70;;;;;;;-0.97;91.28;98715.42;1695323;83;21220;-40
2021/01/29 01:21:30;;;;;;;3.53;1.80;;;;;;;-0.92;91.20;98703.47;1803046;77;23073;-41
2021/01/29 01:24:00;;;;;;;5.83;2.40;;;;;;;-0.93;92.54;98712.25;1768270;78;21090;-41
2021/01/29 01:26:27;;;;;;;4.37;1.90;;;;;;;-0.95;92.84;98708.37;1769947;79;21145;-40
2021/01/29 01:29:13;;;;;;;3.27;2.37;;;;;;;-0.95;91.92;98707.06;1775181;78;21125;-37
2021/01/29 01:31:41;;;;;;;3.43;2.07;;;;;;;-0.96;91.29;98711.03;1770283;78;21137;-40
2021/01/29 01:34:26;;;;;;;2.73;1.97;;;;;;;-0.97;91.03;98709.34;1775832;79;21102;-41
2021/01/29 01:37:03;;;;;;;4.12;2.50;;;;;;;-0.95;90.84;98708.83;1786235;77;29035;-38
2021/01/29 01:39:38;;;;;;;6.10;2.40;;;;;;;-1.00;90.67;98716.02;1630170;86;21223;-39
2021/01/29 01:42:13;;;;;;;3.80;2.60;;;;;;;-0.94;91.10;98714.45;1763788;79;23033;-39
2021/01/29 01:44:42;;;;;;;3.75;2.58;;;;;;;-0.98;91.21;98709.80;1728650;80;21280;-43
2021/01/29 01:47:31;;;;;;;6.20;2.80;;;;;;;-0.99;90.73;98712.01;1731855;80;21268;-42
2021/01/29 01:50:20;;;;;;;3.10;2.00;;;;;;;-0.97;90.29;98710.65;1732220;80;21177;-38
2021/01/29 01:52:48;;;;;;;2.80;2.03;;;;;;;-0.95;90.18;98710.14;1729923;80;21144;-36
2021/01/29 01:55:22;;;;;;;4.70;1.83;;;;;;;-0.95;89.32;98712.30;1726007;80;21173;-39
2021/01/29 01:57:53;;;;;;;3.03;2.00;;;;;;;-0.96;89.05;98704.48;1694710;82;21154;-40
2021/01/29 02:00:26;;;;;;;4.20;2.22;;;;;;;-0.95;89.21;98707.52;1680787;84;21222;-39
2021/01/29 02:03:24;;;;;;;3.27;2.23;;;;;;;-0.94;88.36;98704.83;1658170;84;21161;-38
2021/01/29 02:06:03;;;;;;;3.77;2.00;;;;;;;-0.94;87.94;98709.22;1684524;84;21718;-41
2021/01/29 02:08:39;;;;;;;3.53;2.10;;;;;;;-0.95;87.87;98713.60;1688097;83;21280;-42
2021/01/29 02:11:24;;;;;;;3.67;2.00;;;;;;;-1.00;87.10;98698.54;1685924;83;21305;-38
2021/01/29 02:14:08;;;;;;;3.10;1.87;;;;;;;-0.95;86.00;98699.67;1798107;77;23550;-38
2021/01/29 02:17:19;;;;;;;3.17;2.42;;;;;;;-0.99;86.04;98700.23;1693652;83;21361;-37
2021/01/29 02:20:16;;;;;;;2.73;1.83;;;;;;;-0.94;84.57;98702.67;1806278;78;23053;-37
2021/01/29 02:23:09;;;;;;;3.87;2.47;;;;;;;-0.99;84.58;98700.23;1776639;79;21161;-40
2021/01/29 02:26:48;;;;;;;2.75;1.65;;;;;;;-0.97;84.19;98702.80;1717806;81;21151;-39
2021/01/29 02:29:26;;;;;;;2.75;1.75;;;;;;;-0.94;83.07;98703.52;1716102;81;21141;-40
2021/01/29 02:32:44;;;;;;;2.17;1.33;;;;;;;-0.95;82.02;98697.05;1643232;85;21582;-39
2021/01/29 02:35:41;;;;;;;3.50;1.70;;;;;;;-0.99;81.02;98699.39;1648662;85;21125;-39
2021/01/29 02:38:56;;;;;;;2.57;1.47;;;;;;;-1.00;80.00;98700.31;1662392;85;21185;-38
2021/01/29 02:42:34;;;;;;;2.70;1.23;;;;;;;-0.96;78.71;98696.64;1793561;78;22620;-39
2021/01/29 02:45:29;;;;;;;2.23;1.30;;;;;;;-0.98;77.66;98699.34;1770009;78;21137;-39
2021/01/29 02:48:40;;;;;;;1.57;1.20;;;;;;;-1.01;76.62;98699.89;1784041;79;21130;-36
2021/01/29 02:51:23;;;;;;;1.30;1.20;;;;;;;-1.03;75.88;98698.67;1695517;82;21417;-37
2021/01/29 02:54:13;;;;;;;3.07;1.83;;;;;;;-1.00;74.71;98690.69;1798120;77;23190;-40
2021/01/29 02:57:03;;;;;;;2.77;1.40;;;;;;;-1.08;74.30;98695.38;1773904;78;21158;-38
2021/01/29 03:00:18;;;;;;;2.00;1.57;;;;;;;-1.07;73.75;98700.16;1768054;78;21141;-38
2021/01/29 03:03:11;;;;;;;2.80;1.40;;;;;;;-1.09;73.12;98697.13;1795017;78;23061;-40
2021/01/29 03:05:45;;;;;;;2.87;1.23;;;;;;;-1.14;72.75;98706.91;1729678;81;21177;-39
2021/01/29 03:08:23;;;;;;;3.77;2.17;;;;;;;-1.14;72.54;98699.06;1735121;81;21717;-40
2021/01/29 03:11:41;;;;;;;3.67;1.83;;;;;;;-1.11;72.25;98694.16;1731122;81;21335;-40
2021/01/29 03:14:47;;;;;;;3.37;2.33;;;;;;;-1.11;71.70;98687.20;1741011;81;21179;-39
2021/01/29 03:17:55;;;;;;;3.63;1.83;;;;;;;-1.13;71.25;98688.17;1768461;79;22907;-41
2021/01/29 03:20:55;;;;;;;4.05;1.77;;;;;;;-1.22;70.88;98690.67;1689762;83;21281;-37
2021/01/29 03:23:50;;;;;;;3.37;1.80;;;;;;;-1.24;70.67;98683.79;1794709;78;23076;-40
2021/01/29 03:26:41;;;;;;;3.23;1.90;;;;;;;-1.31;70.61;98684.05;1767849;78;21105;-42
2021/01/29 03:29:31;;;;;;;4.20;2.03;;;;;;;-1.32;70.32;98691.94;1776527;79;21157;-40
2021/01/29 03:32:16;;;;;;;3.17;1.80;;;;;;;-1.33;70.15;98685.02;1783581;79;21184;-40
2021/01/29 03:35:33;;;;;;;4.70;2.20;;;;;;;-1.33;70.02;98673.25;1779388;79;21121;-36
2021/01/29 03:38:43;;;;;;;3.37;2.13;;;;;;;-1.33;69.95;98664.09;1775691;80;21129;-39
2021/01/29 03:41:30;;;;;;;2.97;2.07;;;;;;;-1.37;69.57;98662.49;1718895;81;21154;-39
2021/01/29 03:44:46;;;;;;;3.47;1.97;;;;;;;-1.43;69.37;98670.59;1683851;83;21569;-39
2021/01/29 03:47:38;;;;;;;2.77;1.80;;;;;;;-1.47;69.25;98668.52;1725317;82;21173;-40
2021/01/29 03:50:33;;;;;;;3.47;2.07;;;;;;;-1.47;69.30;98672.91;1721894;81;21157;-41
2021/01/29 03:53:40;;;;;;;3.30;2.20;;;;;;;-1.46;69.16;98667.63;1802835;77;23419;-39
2021/01/29 03:56:56;;;;;;;7.33;3.93;;;;;;;-1.50;69.08;98671.27;1761981;80;21113;-40
2021/01/29 04:00:15;;;;;;;5.83;3.93;;;;;;;-1.54;68.87;98674.46;1776512;80;21130;-39
2021/01/29 04:03:36;;;;;;;9.37;6.63;;;;;;;-1.59;68.71;98671.17;1709504;82;21177;-40
2021/01/29 04:06:24;;;;;;;9.53;6.60;;;;;;;-1.66;68.58;98675.34;1693586;83;21144;-40
2021/01/29 04:09:31;;;;;;;7.97;5.43;;;;;;;-1.75;68.52;98672.64;1673486;84;21280;-41
2021/01/29 04:12:41;;;;;;;7.60;4.20;;;;;;;-1.75;68.58;98667.41;1754770;79;23095;-41
2021/01/29 04:15:31;;;;;;;6.10;3.60;;;;;;;-1.79;68.68;98673.64;1727478;82;21141;-38
2021/01/29 04:18:06;;;;;;;5.17;3.33;;;;;;;-1.80;68.68;98677.18;1681873;83;21156;-40
2021/01/29 04:20:56;;;;;;;5.60;3.03;;;;;;;-1.79;68.75;98675.83;1764474;79;23085;-41
2021/01/29 04:23:34;;;;;;;4.43;3.40;;;;;;;-1.83;68.81;98682.52;1731402;82;21094;-40
2021/01/29 04:26:19;;;;;;;6.63;4.07;;;;;;;-1.81;68.73;98678.95;1625212;86;21173;-36
2021/01/29 04:28:57;;;;;;;4.53;3.47;;;;;;;-1.82;68.80;98675.92;1609062;87;21547;-38
2021/01/29 04:31:25;;;;;;;4.83;3.00;;;;;;;-1.80;68.74;98680.64;1611018;87;21711;-51
2021/01/29 04:34:01;;;;;;;7.37;4.10;;;;;;;-1.78;68.72;98672.76;1652044;85;21212;-38
2021/01/29 04:36:31;;;;;;;5.63;3.43;;;;;;;-1.78;68.71;98670.98;1657695;85;21995;-39
2021/01/29 04:39:19;;;;;;;7.10;3.27;;;;;;;-1.77;68.72;98675.30;1653265;85;21300;-39
2021/01/29 04:42:11;;;;;;;6.37;3.90;;;;;;;-1.78;68.63;98674.91;1655816;86;22143;-38
2021/01/29 04:45:09;;;;;;;6.60;4.28;;;;;;;-1.79;68.39;98678.88;1656428;85;21243;-37
2021/01/29 04:47:47;;;;;;;11.50;4.90;;;;;;;-1.82;68.30;98685.52;1659857;85;21169;-39
2021/01/29 04:50:41;;;;;;;9.17;4.93;;;;;;;-1.84;68.23;98689.95;1652999;85;21183;-39
2021/01/29 04:53:52;;;;;;;11.03;4.90;;;;;;;-1.87;68.13;98683.53;1655765;85;21760;-38
2021/01/29 04:56:34;;;;;;;9.03;5.03;;;;;;;-1.88;68.09;98697.52;1653257;85;21339;-39
2021/01/29 04:59:34;;;;;;;9.57;4.57;;;;;;;-1.89;67.98;98685.34;1655883;85;21173;-39
2021/01/29 05:02:39;;;;;;;7.60;5.72;;;;;;;-1.89;67.65;98679.69;1784175;78;39045;-40
2021/01/29 05:05:54;;;;;;;5.50;3.83;;;;;;;-1.99;67.69;98678.28;1691404;83;21217;-39
2021/01/29 05:08:58;;;;;;;6.37;4.60;;;;;;;-1.88;67.28;98681.84;1797590;77;22935;-38
2021/01/29 05:12:24;;;;;;;11.30;5.10;;;;;;;-1.93;67.08;98674.63;1687860;83;21188;-40
2021/01/29 05:15:29;;;;;;;6.13;4.60;;;;;;;-1.97;66.96;98669.52;1799833;78;22818;-38
2021/01/29 05:18:28;;;;;;;7.87;4.43;;;;;;;-2.01;66.84;98656.16;1770306;80;21181;-41
2021/01/29 05:21:20;;;;;;;6.37;5.03;;;;;;;-2.01;66.73;98659.23;1766057;80;21121;-41
2021/01/29 05:24:05;;;;;;;5.37;3.80;;;;;;;-2.03;66.62;98664.95;1741970;80;21181;-39
2021/01/29 05:27:16;;;;;;;6.27;4.80;;;;;;;-2.01;66.84;98665.76;1751736;78;23171;-41
2021/01/29 05:30:07;;;;;;;7.53;5.17;;;;;;;-2.05;66.75;98664.15;1713096;82;21170;-40
2021/01/29 05:33:00;;;;;;;7.83;5.45;;;;;;;-2.06;66.60;98663.30;1708703;82;21134;-47
2021/01/29 05:36:10;;;;;;;7.47;5.00;;;;;;;-2.06;66.65;98660.69;1709792;82;21157;-39
2021/01/29 05:38:53;;;;;;;8.35;5.05;;;;;;;-2.07;66.62;98662.04;1708925;83;21141;-39
2021/01/29 05:41:59;;;;;;;8.53;5.30;;;;;;;-2.09;66.66;98672.56;1714198;82;21160;-39
2021/01/29 05:45:10;;;;;;;8.77;6.53;;;;;;;-2.12;66.40;98664.81;1705779;83;21189;-38
2021/01/29 05:48:11;;;;;;;8.38;6.87;;;;;;;-2.14;66.46;98657.51;1711980;82;21680;-41
2021/01/29 05:50:55;;;;;;;;;;;;;;;-2.14;66.48;98651.41;1717818;82;21153;-40
2021/01/29 05:53:45;;;;;;;9.63;6.43;;;;;;;-2.14;66.52;98654.90;1705804;83;20278;-39
2021/01/29 05:56:30;;;;;;;10.98;8.48;;;;;;;-2.09;66.53;98641.64;1790316;77;28245;-39
2021/01/29 05:59:20;;;;;;;7.13;6.10;;;;;;;-2.14;66.63;98640.53;1780691;78;21153;-38
2021/01/29 06:02:16;;;;;;;7.80;6.13;;;;;;;-2.03;66.46;98647.97;1709301;81;21138;-38
2021/01/29 06:05:32;;;;;;;8.80;6.83;;;;;;;-2.03;66.47;98649.28;1749639;80;21099;-38
2021/01/29 06:08:43;;;;;;;9.40;6.83;;;;;;;-2.04;66.46;98643.64;1747696;81;21632;-41
2021/01/29 06:11:23;;;;;;;;;;;;;;;-2.07;66.53;98640.68;1747643;80;21279;-38
2021/01/29 06:14:19;;;;;;;10.67;7.70;;;;;;;-2.11;66.67;98637.80;1739060;80;20163;-37
2021/01/29 06:17:28;;;;;;;11.03;7.70;;;;;;;-2.10;66.91;98638.64;1754925;81;21530;-39
2021/01/29 06:20:29;;;;;;;12.03;7.57;;;;;;;-2.09;67.09;98641.22;1740840;80;21138;-40
2021/01/29 06:23:45;;;;;;;12.87;7.70;;;;;;;-2.06;67.22;98624.58;1732145;81;21137;-39
2021/01/29 06:26:49;;;;;;;10.43;8.43;;;;;;;-2.04;67.31;98633.19;1661469;84;21164;-40
2021/01/29 06:29:48;;;;;;;12.87;8.97;;;;;;;-2.05;67.47;98612.75;1660000;85;21596;-38
2021/01/29 06:32:35;;;;;;;12.15;8.48;;;;;;;-2.04;67.92;98615.77;1671621;84;21864;-38
2021/01/29 06:35:22;;;;;;;11.43;7.83;;;;;;;-2.03;68.01;98612.24;1665318;85;21197;-40
2021/01/29 06:38:31;;;;;;;19.83;8.63;;;;;;;-2.03;68.16;98605.70;1666410;84;21197;-40
2021/01/29 06:41:39;;;;;;;12.77;9.27;;;;;;;-2.03;68.92;98609.62;1667401;84;21182;-41
2021/01/29 06:44:48;;;;;;;11.37;9.00;;;;;;;-2.04;69.22;98610.98;1683421;83;21172;-38
2021/01/29 06:47:37;;;;;;;13.33;9.53;;;;;;;-2.07;69.99;98628.92;1684543;83;21953;-40
2021/01/29 06:50:31;;;;;;;14.90;9.33;;;;;;;-2.10;70.49;98640.80;1670515;85;21601;-39
2021/01/29 06:53:46;;;;;;;17.13;11.07;;;;;;;-2.06;70.69;98639.79;1670077;84;21373;-39
2021/01/29 06:56:40;;;;;;;12.70;9.47;;;;;;;-2.03;70.97;98638.37;1696268;81;21165;-39
2021/01/29 06:59:19;;;;;;;14.03;8.47;;;;;;;-2.03;71.44;98633.14;1791109;78;21134;-39
2021/01/29 07:02:13;;;;;;;13.63;9.53;;;;;;;-2.03;73.06;98627.92;1734385;81;21154;-39
2021/01/29 07:05:02;;;;;;;14.00;9.80;;;;;;;-2.08;77.16;98624.62;1784726;78;21141;-37
2021/01/29 07:07:54;;;;;;;17.67;12.40;;;;;;;-2.09;73.98;98613.78;1709543;81;21146;-39
2021/01/29 07:10:44;;;;;;;16.37;10.90;;;;;;;-2.05;73.28;98623.66;1709480;82;21103;-37
2021/01/29 07:13:42;;;;;;;13.67;10.60;;;;;;;-2.03;73.01;98614.85;1710045;82;21180;-39
2021/01/29 07:16:31;;;;;;;20.10;13.73;;;;;;;-2.01;72.85;98605.20;1717682;82;21554;-41
2021/01/29 07:19:32;;;;;;;19.40;11.97;;;;;;;-2.00;72.75;98603.44;1720064;82;21177;-39
2021/01/29 07:22:26;;;;;;;;;;;;;;;-1.99;72.70;98598.17;1719509;82;21617;-38
2021/01/29 07:25:11;;;;;;;14.43;9.60;;;;;;;-1.93;72.56;98597.54;1713371;82;20199;-37
2021/01/29 07:27:56;;;;;;;14.50;9.87;;;;;;;-1.93;72.47;98600.16;1718574;82;21152;-38
2021/01/29 07:31:04;;;;;;;13.03;10.20;;;;;;;-1.90;72.55;98594.34;1795692;79;22798;-39
2021/01/29 07:33:43;;;;;;;13.13;9.40;;;;;;;-1.93;72.43;98587.94;1778828;80;21141;-39
2021/01/29 07:36:45;;;;;;;13.97;9.27;;;;;;;-1.91;72.42;98583.97;1775840;79;21145;-38
2021/01/29 07:39:48;;;;;;;13.90;9.47;;;;;;;-1.90;72.46;98585.66;1745947;81;21155;-39
2021/01/29 07:42:56;;;;;;;12.47;8.47;;;;;;;-1.85;72.46;98581.11;1721196;81;21157;-39
2021/01/29 07:46:19;;;;;;;14.33;9.77;;;;;;;-1.80;72.36;98583.94;1720599;81;21169;-38
2021/01/29 07:49:32;;;;;;;14.80;10.00;;;;;;;-1.80;72.42;98586.55;1740202;80;21567;-39
2021/01/29 07:52:08;;;;;;;14.27;8.97;;;;;;;-1.81;72.49;98575.71;1720071;81;21164;-40
2021/01/29 07:55:04;;;;;;;12.33;8.90;;;;;;;-1.77;72.58;98576.44;1710615;83;21150;-39
2021/01/29 07:58:14;;;;;;;13.17;9.03;;;;;;;-1.72;72.69;98572.34;1639792;85;21222;-38
2021/01/29 08:01:06;;;;;;;14.85;10.53;;;;;;;-1.67;72.77;98574.32;1638819;85;21240;-40
2021/01/29 08:04:13;;;;;;;11.53;8.93;;;;;;;-1.64;73.15;98572.45;1641108;85;21715;-39
2021/01/29 08:09:56;;;;;;;15.37;9.00;;;;;;;-1.49;73.68;98563.59;1758169;78;23127;-40
2021/01/29 08:12:25;;;;;;;13.77;9.47;;;;;;;-1.51;74.02;98564.98;1729844;82;21153;-39
2021/01/29 08:15:19;;;;;;;12.90;9.00;;;;;;;-1.50;75.11;98556.21;1726757;80;21641;-40
2021/01/29 08:18:13;;;;;;;13.63;9.23;;;;;;;-1.49;77.87;98560.98;1720377;81;21160;-38
2021/01/29 08:21:23;;;;;;;13.00;9.23;;;;;;;-1.48;76.87;98568.77;1731732;81;21176;-38
2021/01/29 08:24:14;;;;;;;12.37;9.27;;;;;;;-1.41;77.06;98561.09;1794418;77;22865;-41
2021/01/29 08:27:19;;;;;;;10.67;8.50;;;;;;;-1.41;78.58;98565.44;1779438;78;21138;-39
2021/01/29 08:30:28;;;;;;;11.03;8.80;;;;;;;-1.40;78.27;98556.70;1778748;78;21138;-41
2021/01/29 08:33:19;;;;;;;13.37;9.60;;;;;;;-1.40;77.19;98556.23;1777045;78;21138;-41
2021/01/29 08:36:17;;;;;;;12.50;9.10;;;;;;;-1.37;77.12;98550.03;1775826;78;21574;-42
2021/01/29 08:39:21;;;;;;;12.80;9.10;;;;;;;-1.32;77.01;98554.16;1777929;78;21122;-38
2021/01/29 08:42:11;;;;;;;16.50;11.23;;;;;;;-1.29;77.93;98550.56;1721443;81;21183;-41
2021/01/29 08:45:31;;;;;;;13.70;10.23;;;;;;;-1.26;77.67;98546.97;1717248;81;21149;-42
2021/01/29 08:48:56;;;;;;;12.68;9.43;;;;;;;-1.25;77.42;98548.23;1738144;81;21577;-41
2021/01/29 08:51:28;;;;;;;11.90;8.83;;;;;;;-1.20;77.47;98548.05;1742053;80;21161;-40
2021/01/29 08:54:07;;;;;;;13.10;9.90;;;;;;;-1.18;77.44;98543.14;1736522;80;21141;-42
2021/01/29 08:57:20;;;;;;;13.63;9.60;;;;;;;-1.14;77.45;98544.70;1736650;80;21585;-41
2021/01/29 08:59:51;;;;;;;14.77;9.77;;;;;;;-1.13;79.17;98545.11;1724319;81;21177;-41
2021/01/29 09:02:52;;;;;;;14.13;10.20;;;;;;;-1.12;79.49;98540.27;1689875;83;21189;-40
2021/01/29 09:05:28;;;;;;;16.27;11.27;;;;;;;-1.06;79.81;98533.07;1798636;77;23618;-39
2021/01/29 09:08:04;;;;;;;13.88;10.13;;;;;;;-1.06;80.52;98539.61;1743893;78;21153;-41
2021/01/29 09:11:20;;;;;;;12.00;9.47;;;;;;;-1.06;80.39;98535.69;1771936;78;21527;-41
2021/01/29 09:13:55;;;;;;;13.00;10.43;;;;;;;-1.04;79.58;98526.86;1772125;78;21160;-40
2021/01/29 09:16:30;;;;;;;16.03;10.97;;;;;;;-0.97;79.15;98524.84;1749647;78;21112;-42
2021/01/29 09:19:10;;;;;;;14.20;11.57;;;;;;;-0.94;78.93;98530.78;1779759;78;21149;-39
2021/01/29 09:22:00;;;;;;;21.60;15.93;;;;;;;-0.88;78.80;98517.92;1775512;78;21141;-43
2021/01/29 09:24:56;;;;;;;16.60;11.20;;;;;;;-0.85;78.87;98528.25;1781166;78;21149;-41
2021/01/29 09:27:51;;;;;;;13.77;10.10;;;;;;;-0.81;78.67;98527.19;1773026;78;21574;-39
2021/01/29 09:30:28;;;;;;;13.73;10.30;;;;;;;-0.79;79.04;98526.66;1738016;80;21193;-40
2021/01/29 09:33:29;;;;;;;12.50;9.90;;;;;;;-0.74;78.75;98530.40;1721696;81;21183;-39
2021/01/29 09:36:16;;;;;;;13.95;9.28;;;;;;;-0.71;78.59;98531.10;1736957;80;21133;-40
2021/01/29 09:39:04;;;;;;;17.07;12.47;;;;;;;-0.62;78.51;98532.95;1741146;80;21453;-39
2021/01/29 09:41:55;;;;;;;15.00;10.53;;;;;;;-0.59;78.35;98534.97;1744961;80;21658;-40
2021/01/29 09:44:40;;;;;;;19.42;13.90;;;;;;;-0.55;78.21;98534.39;1746357;80;21175;-40
2021/01/29 09:47:08;;;;;;;13.37;9.73;;;;;;;-0.54;78.52;98527.76;1727226;81;21153;-40
2021/01/29 09:49:37;;;;;;;13.47;9.70;;;;;;;-0.51;78.45;98530.70;1717853;81;21146;-39
2021/01/29 09:52:32;;;;;;;13.30;9.95;;;;;;;-0.46;78.31;98537.43;1700180;82;21146;-43
2021/01/29 09:55:20;;;;;;;15.68;10.63;;;;;;;-0.41;78.26;98530.68;1707945;81;21183;-39
2021/01/29 09:58:10;;;;;;;13.87;9.83;;;;;;;-0.34;78.71;98528.65;1722228;81;21137;-41
2021/01/29 10:00:38;;;;;;;14.43;9.80;;;;;;;-0.29;78.94;98531.91;1697711;82;22214;-40
2021/01/29 10:03:27;;;;;;;13.03;9.50;;;;;;;-0.26;78.82;98528.68;1707425;83;21150;-39
2021/01/29 10:06:28;;;;;;;15.73;10.27;;;;;;;-0.22;78.69;98531.56;1706694;82;21158;-40
2021/01/29 10:08:57;;;;;;;;;;;;;;;-0.14;78.49;98530.37;1711303;82;21534;-41
2021/01/29 10:11:41;;;;;;;10.43;7.77;;;;;;;-0.09;78.22;98526.61;1697435;82;20163;-41
2021/01/29 10:14:25;;;;;;;12.40;9.40;;;;;;;-0.04;78.25;98519.86;1708746;82;21166;-44
2021/01/29 10:17:00;;;;;;;10.87;8.83;;;;;;;0.03;78.29;98515.19;1711228;82;21145;-44
2021/01/29 10:19:41;;;;;;;13.60;11.03;;;;;;;0.12;78.14;98507.72;1714185;82;21169;-39
2021/01/29 10:22:39;;;;;;;12.53;9.03;;;;;;;0.19;77.98;98506.98;1713791;82;21558;-39
2021/01/29 10:25:19;;;;;;;11.50;9.28;;;;;;;0.24;77.79;98495.81;1709203;82;21189;-41
2021/01/29 10:28:04;;;;;;;12.20;9.97;;;;;;;0.29;77.66;98496.44;1707401;82;21864;-41
2021/01/29 10:30:51;;;;;;;13.95;9.30;;;;;;;0.36;77.52;98493.91;1710664;82;21114;-42
2021/01/29 10:33:25;;;;;;;13.20;9.67;;;;;;;0.41;77.39;98492.39;1708482;82;21145;-39
2021/01/29 10:36:08;;;;;;;12.90;9.15;;;;;;;0.47;77.25;98490.77;1711112;82;21497;-40
2021/01/29 10:39:01;;;;;;;12.37;9.30;;;;;;;0.52;77.09;98483.98;1684604;83;21296;-39
2021/01/29 10:41:46;;;;;;;14.20;10.03;;;;;;;0.57;77.00;98482.83;1712499;82;21191;-38
2021/01/29 10:44:19;;;;;;;15.55;11.38;;;;;;;0.64;76.90;98475.05;1702884;83;21157;-37
2021/01/29 10:47:22;;;;;;;13.60;9.70;;;;;;;0.74;76.77;98478.54;1705929;82;21125;-39
2021/01/29 10:50:14;;;;;;;12.27;9.60;;;;;;;0.81;76.71;98478.63;1707066;82;21137;-42
2021/01/29 10:53:12;;;;;;;17.00;12.93;;;;;;;0.89;76.52;98476.45;1706776;82;21178;-40
2021/01/29 10:55:43;;;;;;;14.07;9.88;;;;;;;0.95;76.18;98476.59;1690025;83;21136;-39
2021/01/29 10:58:46;;;;;;;14.15;10.20;;;;;;;0.99;75.79;98465.03;1699154;83;21157;-39
2021/01/29 11:01:39;;;;;;;14.00;8.95;;;;;;;1.02;75.47;98472.27;1703765;83;21181;-39
2021/01/29 11:04:36;;;;;;;10.73;8.30;;;;;;;1.08;75.10;98469.78;1694572;83;21198;-42
2021/01/29 11:07:21;;;;;;;13.38;10.10;;;;;;;1.14;74.62;98471.27;1648546;85;21166;-40
2021/01/29 11:10:23;;;;;;;12.75;9.55;;;;;;;1.17;74.18;98480.30;1650010;86;21139;-45
2021/01/29 11:13:10;;;;;;;11.93;9.95;;;;;;;1.17;73.93;98481.14;1695404;83;21202;-43
2021/01/29 11:15:56;;;;;;;14.80;11.03;;;;;;;1.21;73.63;98480.06;1688518;83;21171;-43
2021/01/29 11:18:35;;;;;;;13.18;9.53;;;;;;;1.23;73.03;98476.86;1692235;83;21166;-49
2021/01/29 11:21:23;;;;;;;10.90;8.83;;;;;;;1.20;72.44;98481.44;1685586;83;21182;-39
2021/01/29 11:24:17;;;;;;;11.43;9.38;;;;;;;1.15;72.14;98479.05;1691620;83;21187;-40
2021/01/29 11:27:43;;;;;;;12.23;9.33;;;;;;;1.17;71.75;98473.73;1802134;77;23539;-40
2021/01/29 11:30:30;;;;;;;13.18;10.15;;;;;;;1.11;71.33;98470.09;1778993;79;21651;-38
2021/01/29 11:33:07;;;;;;;13.50;10.13;;;;;;;1.03;71.21;98473.98;1769406;80;21122;-39
2021/01/29 11:35:44;;;;;;;15.00;11.05;;;;;;;0.98;70.54;98467.25;1720589;81;21540;-39
2021/01/29 11:38:26;;;;;;;14.55;11.28;;;;;;;0.99;70.26;98470.28;1721861;81;21165;-40
2021/01/29 11:41:41;;;;;;;16.57;12.45;;;;;;;0.96;70.81;98470.41;1715846;83;21178;-38
2021/01/29 11:44:45;;;;;;;16.45;11.65;;;;;;;0.93;72.17;98475.82;1722633;81;21165;-40
2021/01/29 11:47:34;;;;;;;14.85;10.78;;;;;;;0.94;71.39;98473.13;1729211;81;21138;-39
2021/01/29 11:50:13;;;;;;;11.25;9.15;;;;;;;0.99;70.39;98475.05;1712492;82;21549;-39
2021/01/29 11:52:46;;;;;;;14.13;9.60;;;;;;;1.00;70.30;98474.12;1720913;82;21624;-40
2021/01/29 11:55:20;;;;;;;12.23;10.28;;;;;;;1.03;70.06;98467.86;1718592;82;21133;-39
2021/01/29 11:58:19;;;;;;;12.03;9.48;;;;;;;1.07;69.85;98470.73;1720970;82;21165;-39
2021/01/29 12:01:00;;;;;;;11.90;8.55;;;;;;;1.12;69.07;98473.96;1718216;82;21164;-40
2021/01/29 12:03:42;;;;;;;12.58;8.95;;;;;;;1.17;68.50;98478.52;1692552;82;21176;-40
2021/01/29 12:06:21;;;;;;;16.77;10.00;;;;;;;1.22;67.48;98476.50;1695630;82;21668;-38
2021/01/29 12:09:00;;;;;;;13.08;8.58;;;;;;;1.20;65.05;98478.34;1666552;84;21180;-38
2021/01/29 12:11:40;;;;;;;13.10;9.28;;;;;;;1.14;65.77;98470.80;1694413;82;21573;-40
2021/01/29 12:14:16;;;;;;;11.20;8.63;;;;;;;1.09;65.01;98476.75;1698399;82;21168;-38
2021/01/29 12:16:45;;;;;;;10.85;7.58;;;;;;;1.09;64.64;98483.31;1699315;82;21157;-39
2021/01/29 12:19:19;;;;;;;12.10;8.60;;;;;;;1.10;63.86;98490.25;1692764;82;21402;-41
2021/01/29 12:21:50;;;;;;;11.48;8.15;;;;;;;1.07;63.66;98477.29;1696075;82;21146;-40
2021/01/29 12:24:29;;;;;;;12.05;8.00;;;;;;;1.05;63.31;98480.45;1666394;82;21170;-53
2021/01/29 12:27:13;;;;;;;11.57;7.90;;;;;;;1.03;63.21;98484.92;1678459;83;21138;-38
2021/01/29 12:29:49;;;;;;;11.08;8.20;;;;;;;1.02;63.42;98489.33;1730066;81;21485;-42
2021/01/29 12:32:35;;;;;;;13.32;8.30;;;;;;;1.08;63.68;98483.79;1729510;81;21115;-40
2021/01/29 12:35:29;;;;;;;12.70;8.70;;;;;;;1.17;63.20;98473.73;1717165;81;21165;-40
2021/01/29 12:38:21;;;;;;;13.53;9.73;;;;;;;1.21;64.15;98480.06;1726444;81;21135;-39
2021/01/29 12:41:03;;;;;;;13.80;9.33;;;;;;;1.25;64.24;98481.58;1650835;85;21433;-40
2021/01/29 12:43:36;;;;;;;13.13;9.35;;;;;;;1.26;62.91;98478.05;1724355;81;21729;-39
2021/01/29 12:46:15;;;;;;;14.15;9.70;;;;;;;1.28;62.41;98477.95;1695470;81;21185;-39
2021/01/29 12:48:54;;;;;;;12.23;8.18;;;;;;;1.32;62.66;98485.22;1723300;81;21134;-42
2021/01/29 12:51:34;;;;;;;15.43;9.83;;;;;;;1.35;62.77;98478.48;1700324;82;21273;-40
2021/01/29 12:54:16;;;;;;;12.30;8.80;;;;;;;1.38;62.61;98484.41;1703246;82;21331;-38
2021/01/29 12:57:07;;;;;;;13.28;8.80;;;;;;;1.46;62.66;98483.57;1795641;78;23105;-41
2021/01/29 12:59:47;;;;;;;18.32;11.05;;;;;;;1.48;62.67;98483.47;1798646;77;21172;-40
2021/01/29 13:02:53;;;;;;;12.50;9.13;;;;;;;1.54;62.65;98483.60;1803960;78;21645;-42
2021/01/29 13:05:26;;;;;;;13.93;9.23;;;;;;;1.60;62.72;98478.04;1797031;78;21237;-40
2021/01/29 13:08:23;;;;;;;19.50;14.60;;;;;;;1.67;62.86;98484.67;1758204;79;21618;-39
2021/01/29 13:11:19;;;;;;;13.22;9.58;;;;;;;1.71;63.03;98479.17;1760312;79;21314;-40
2021/01/29 13:14:07;;;;;;;14.53;10.50;;;;;;;1.75;63.06;98483.78;1731611;80;21185;-39
2021/01/29 13:17:02;;;;;;;16.27;10.25;;;;;;;1.77;63.16;98477.98;1762641;79;21137;-40